Time;durP1;ratioP1;P1;durP2;ratioP2;P2;SDS_P1;SDS_P2;PMS_P1;PMS_P2;Temp;Humidity;BMP_temperature;BMP_pressure;BME280_temperature;BME280_humidity;BME280_pressure;Samples;Min_cycle;Max_cycle;Signal;HPM_P1;HPM_P2
2023/02/25 00:00:44;;;;;;;15.25;10.63;;;2.50;75.40;;;;;;5031975;28;20433;-69
2023/02/25 00:03:10;;;;;;;20.45;13.07;;;2.40;75.30;;;;;;5029461;28;20040;-69
2023/02/25 00:05:39;;;;;;;20.13;13.13;;;2.40;75.40;;;;;;5032038;28;20415;-71
2023/02/25 00:08:05;;;;;;;14.00;9.85;;;2.40;74.00;;;;;;5027814;28;20109;-70
2023/02/25 00:10:32;;;;;;;14.10;10.00;;;2.40;74.60;;;;;;5023763;28;20040;-71
2023/02/25 00:12:57;;;;;;;18.73;12.93;;;2.30;75.10;;;;;;5028876;28;20052;-70
2023/02/25 00:15:23;;;;;;;16.48;10.98;;;2.30;74.10;;;;;;5029202;28;20042;-69
2023/02/25 00:17:49;;;;;;;19.52;13.20;;;2.30;75.40;;;;;;5025694;28;20116;-70
2023/02/25 00:20:16;;;;;;;18.83;12.60;;;2.20;75.80;;;;;;5021635;28;20116;-70
2023/02/25 00:22:42;;;;;;;20.05;13.55;;;2.20;75.60;;;;;;5026818;28;20126;-70
2023/02/25 00:25:08;;;;;;;24.95;15.27;;;2.20;75.00;;;;;;5026990;28;20063;-70
2023/02/25 00:27:34;;;;;;;26.77;14.38;;;2.20;74.20;;;;;;5023804;28;20030;-71
2023/02/25 00:30:00;;;;;;;20.75;13.73;;;2.20;74.10;;;;;;5015300;28;20861;-70
2023/02/25 00:32:25;;;;;;;21.95;13.13;;;2.10;74.20;;;;;;5026158;28;20103;-70
2023/02/25 00:34:51;;;;;;;27.42;16.35;;;2.10;74.20;;;;;;5023975;28;20029;-70
2023/02/25 00:37:20;;;;;;;23.50;15.35;;;2.00;75.80;;;;;;5024801;28;20099;-70
2023/02/25 00:39:45;;;;;;;23.65;14.15;;;1.90;75.90;;;;;;5015911;28;20066;-71
2023/02/25 00:42:15;;;;;;;20.35;13.27;;;1.90;75.90;;;;;;5040286;28;20057;-71
2023/02/25 00:44:46;;;;;;;22.83;13.80;;;1.70;76.90;;;;;;5031279;28;20300;-71
2023/02/25 00:47:13;;;;;;;19.00;12.40;;;1.60;77.40;;;;;;5023891;28;20064;-72
2023/02/25 00:49:39;;;;;;;22.75;13.85;;;1.50;77.40;;;;;;5027549;28;20339;-71
2023/02/25 00:52:05;;;;;;;21.42;13.65;;;1.40;77.20;;;;;;5016730;28;20037;-71
2023/02/25 00:54:32;;;;;;;25.02;15.15;;;1.30;76.70;;;;;;5015676;28;20022;-70
2023/02/25 00:56:58;;;;;;;27.42;15.52;;;1.30;75.00;;;;;;5019472;28;20038;-71
2023/02/25 00:59:24;;;;;;;27.73;15.27;;;1.30;74.90;;;;;;5023919;28;20022;-71
2023/02/25 01:01:49;;;;;;;29.52;14.88;;;1.20;74.60;;;;;;5017576;28;20029;-72
2023/02/25 01:04:15;;;;;;;31.27;15.70;;;1.20;74.50;;;;;;5025782;28;20053;-72
2023/02/25 01:06:41;;;;;;;31.10;15.57;;;1.10;74.00;;;;;;5017231;28;20092;-72
2023/02/25 01:09:12;;;;;;;33.55;17.52;;;1.10;73.00;;;;;;5020937;28;20041;-72
2023/02/25 01:11:40;;;;;;;35.70;17.33;;;1.00;72.50;;;;;;5016443;28;20046;-72
2023/02/25 01:14:11;;;;;;;31.00;16.95;;;0.90;71.60;;;;;;5018817;28;20056;-73
2023/02/25 01:16:37;;;;;;;34.63;16.08;;;0.90;70.90;;;;;;5027359;28;20315;-72
2023/02/25 01:19:06;;;;;;;32.08;16.83;;;0.90;69.90;;;;;;5026780;28;20032;-72
2023/02/25 01:21:35;;;;;;;35.45;17.23;;;0.90;70.10;;;;;;5035836;28;20034;-71
2023/02/25 01:24:09;;;;;;;36.05;16.80;;;0.90;69.30;;;;;;5039443;28;20018;-71
2023/02/25 01:26:37;;;;;;;36.47;16.40;;;0.90;69.30;;;;;;5035478;28;20347;-71
2023/02/25 01:29:31;;;;;;;37.13;15.95;;;0.90;68.60;;;;;;5026102;28;20037;-72
2023/02/25 01:31:59;;;;;;;46.20;19.05;;;0.90;68.90;;;;;;5033697;28;20153;-71
2023/02/25 01:34:26;;;;;;;36.35;17.65;;;0.90;68.80;;;;;;5037859;28;20029;-71
2023/02/25 01:36:52;;;;;;;36.38;18.02;;;0.90;68.70;;;;;;5037531;28;20029;-71
2023/02/25 01:39:19;;;;;;;29.35;15.98;;;0.90;68.40;;;;;;5027413;28;20060;-71
2023/02/25 01:41:47;;;;;;;39.03;18.50;;;0.90;67.90;;;;;;5038657;28;20029;-71
2023/02/25 01:44:24;;;;;;;35.88;17.33;;;0.90;68.10;;;;;;5032539;28;20322;-72
2023/02/25 01:46:53;;;;;;;40.15;18.00;;;0.90;67.60;;;;;;5018904;28;20069;-71
2023/02/25 01:49:32;;;;;;;41.88;18.55;;;0.90;67.50;;;;;;5030450;28;20037;-71
2023/02/25 01:52:01;;;;;;;40.38;17.95;;;1.00;67.80;;;;;;5033626;28;20034;-71
2023/02/25 01:54:29;;;;;;;42.67;18.45;;;1.00;67.10;;;;;;5037580;28;20032;-71
2023/02/25 01:56:56;;;;;;;32.65;16.08;;;1.00;67.30;;;;;;5030978;28;20022;-72
2023/02/25 01:59:26;;;;;;;32.75;17.10;;;1.10;67.00;;;;;;5022343;28;20406;-71
2023/02/25 02:01:52;;;;;;;31.30;15.25;;;1.10;66.90;;;;;;5018249;28;20069;-71
2023/02/25 02:04:19;;;;;;;35.92;16.85;;;1.10;67.00;;;;;;5025017;28;20080;-71
2023/02/25 02:06:47;;;;;;;30.35;16.10;;;1.20;66.60;;;;;;5031754;28;20033;-71
2023/02/25 02:09:16;;;;;;;42.65;18.88;;;1.20;67.00;;;;;;5022245;28;20373;-70
2023/02/25 02:11:42;;;;;;;40.80;18.02;;;1.20;66.90;;;;;;5028097;28;20030;-70
2023/02/25 02:14:11;;;;;;;35.60;16.42;;;1.20;67.00;;;;;;5021295;28;20041;-70
2023/02/25 02:17:08;;;;;;;27.38;14.57;;;1.20;66.80;;;;;;5024932;28;20117;-70
2023/02/25 02:19:40;;;;;;;33.00;16.35;;;1.20;66.10;;;;;;5024767;28;20030;-70
2023/02/25 02:22:13;;;;;;;35.40;17.13;;;1.30;66.50;;;;;;5038811;28;20051;-70
2023/02/25 02:24:53;;;;;;;34.20;17.23;;;1.30;66.30;;;;;;5034321;28;20036;-70
2023/02/25 02:27:54;;;;;;;37.13;17.50;;;1.40;65.90;;;;;;5036622;28;20022;-70
2023/02/25 02:30:34;;;;;;;32.30;16.23;;;1.40;66.10;;;;;;5026359;28;20053;-70
2023/02/25 02:33:15;;;;;;;37.13;17.92;;;1.60;65.40;;;;;;5038862;28;20102;-70
2023/02/25 02:35:51;;;;;;;35.25;16.75;;;1.60;66.10;;;;;;5020067;28;20026;-70
2023/02/25 02:38:37;;;;;;;32.15;16.60;;;1.60;66.00;;;;;;5019385;28;20033;-70
2023/02/25 02:41:33;;;;;;;27.50;16.23;;;1.70;66.20;;;;;;5024705;28;20033;-70
2023/02/25 02:44:09;;;;;;;34.85;19.02;;;1.70;66.30;;;;;;5019505;28;20041;-70
2023/02/25 02:46:41;;;;;;;47.45;22.05;;;1.80;66.60;;;;;;5036291;28;20037;-70
2023/02/25 02:49:16;;;;;;;45.15;21.58;;;1.80;67.40;;;;;;5066471;28;20418;-69
2023/02/25 02:51:55;;;;;;;42.95;21.67;;;1.70;67.60;;;;;;5025603;28;20030;-69
2023/02/25 02:54:23;;;;;;;46.95;22.40;;;1.70;67.40;;;;;;5022904;28;20064;-70
2023/02/25 02:56:51;;;;;;;51.30;22.40;;;1.70;67.20;;;;;;5069086;28;20048;-69
2023/02/25 02:59:28;;;;;;;43.80;21.20;;;1.70;67.30;;;;;;5032494;28;20330;-71
2023/02/25 03:02:05;;;;;;;50.10;21.00;;;1.60;67.10;;;;;;5022507;28;20493;-71
2023/02/25 03:04:34;;;;;;;46.92;21.40;;;1.70;66.50;;;;;;5017784;28;20030;-71
2023/02/25 03:07:11;;;;;;;40.83;19.65;;;1.70;66.60;;;;;;5032844;28;20454;-69
2023/02/25 03:09:52;;;;;;;36.95;19.15;;;1.70;66.30;;;;;;5018088;28;20069;-70
2023/02/25 03:12:18;;;;;;;46.17;22.33;;;1.70;66.00;;;;;;5030952;28;20474;-70
2023/02/25 03:14:43;;;;;;;40.00;19.48;;;1.80;65.90;;;;;;5021738;28;20022;-69
2023/02/25 03:17:23;;;;;;;39.50;20.90;;;1.80;65.70;;;;;;5034010;28;20037;-69
2023/02/25 03:20:16;;;;;;;39.25;19.70;;;1.80;65.80;;;;;;5022888;28;20025;-69
2023/02/25 03:22:48;;;;;;;44.33;22.27;;;1.90;65.70;;;;;;5017509;28;20034;-69
2023/02/25 03:25:37;;;;;;;41.97;22.13;;;1.90;66.00;;;;;;5024403;28;20029;-69
2023/02/25 03:28:14;;;;;;;43.22;21.33;;;1.80;66.30;;;;;;5026936;28;20480;-69
2023/02/25 03:30:47;;;;;;;41.03;20.05;;;1.80;66.00;;;;;;5026207;28;20565;-69
2023/02/25 03:33:25;;;;;;;42.65;21.75;;;1.80;65.90;;;;;;5037603;28;20029;-69
2023/02/25 03:35:55;;;;;;;45.55;22.58;;;1.80;65.80;;;;;;5025220;28;20482;-69
2023/02/25 03:38:32;;;;;;;35.70;20.77;;;1.80;66.40;;;;;;5016878;28;20332;-69
2023/02/25 03:41:00;;;;;;;39.20;21.38;;;1.80;65.90;;;;;;5028921;28;20365;-69
2023/02/25 03:43:37;;;;;;;38.58;20.17;;;1.80;65.90;;;;;;5017719;28;20033;-69
2023/02/25 03:46:04;;;;;;;40.25;20.73;;;1.90;66.00;;;;;;5028015;28;20040;-69
2023/02/25 03:48:30;;;;;;;43.85;21.95;;;1.90;66.60;;;;;;5023248;28;20446;-68
2023/02/25 03:51:01;;;;;;;36.17;20.70;;;1.80;66.50;;;;;;5027051;28;20037;-69
2023/02/25 03:53:28;;;;;;;46.83;22.80;;;1.90;66.20;;;;;;5036328;28;20029;-69
2023/02/25 03:55:55;;;;;;;40.15;20.58;;;1.90;66.30;;;;;;5016951;28;20026;-69
2023/02/25 03:58:21;;;;;;;37.05;20.23;;;1.90;66.40;;;;;;5029567;28;20045;-69
2023/02/25 04:00:51;;;;;;;35.17;17.95;;;1.90;66.20;;;;;;5028169;28;20030;-69
2023/02/25 04:03:17;;;;;;;44.90;22.38;;;1.90;66.50;;;;;;5017132;28;20030;-68
2023/02/25 04:05:42;;;;;;;47.80;22.15;;;1.90;66.70;;;;;;5017547;28;20033;-69
2023/02/25 04:08:14;;;;;;;39.85;21.02;;;1.90;66.80;;;;;;5029276;28;20034;-69
2023/02/25 04:10:46;;;;;;;41.50;20.52;;;1.90;66.60;;;;;;5030346;28;20029;-69
2023/02/25 04:13:15;;;;;;;53.67;22.40;;;1.90;66.70;;;;;;5017086;28;20109;-68
2023/02/25 04:15:41;;;;;;;33.55;17.60;;;1.90;67.00;;;;;;5019741;28;20064;-69
2023/02/25 04:18:07;;;;;;;37.05;20.60;;;1.90;66.40;;;;;;5023735;28;20618;-68
2023/02/25 04:20:34;;;;;;;45.38;20.95;;;1.90;66.60;;;;;;5021646;28;20108;-69
2023/02/25 04:23:00;;;;;;;43.88;21.70;;;1.90;67.10;;;;;;5035315;28;20033;-68
2023/02/25 04:25:26;;;;;;;40.00;20.17;;;1.90;67.20;;;;;;5035914;28;20036;-68
2023/02/25 04:27:51;;;;;;;37.20;20.20;;;1.80;67.10;;;;;;5023435;28;20030;-69
2023/02/25 04:30:18;;;;;;;36.78;18.33;;;1.90;66.70;;;;;;5017441;28;20036;-68
2023/02/25 04:32:44;;;;;;;38.67;20.77;;;1.80;67.30;;;;;;5036339;28;20022;-69
2023/02/25 04:35:12;;;;;;;40.25;19.20;;;1.80;68.00;;;;;;5035466;28;20095;-69
2023/02/25 04:37:39;;;;;;;38.88;18.55;;;1.70;68.00;;;;;;5026485;28;20029;-68
2023/02/25 04:40:10;;;;;;;42.25;21.15;;;1.70;68.20;;;;;;5034841;28;20025;-68
2023/02/25 04:42:39;;;;;;;41.10;19.50;;;1.70;68.60;;;;;;5016709;28;20105;-68
2023/02/25 04:45:07;;;;;;;32.38;18.05;;;1.70;68.50;;;;;;5015423;28;20045;-68
2023/02/25 04:47:33;;;;;;;38.85;19.17;;;1.70;69.10;;;;;;5025993;28;20036;-68
2023/02/25 04:49:59;;;;;;;37.67;20.05;;;1.70;69.30;;;;;;5035930;28;20026;-69
2023/02/25 04:52:24;;;;;;;28.88;16.23;;;1.70;69.80;;;;;;5034249;28;20038;-68
2023/02/25 04:54:50;;;;;;;29.83;17.20;;;1.70;70.50;;;;;;5036234;28;20048;-68
2023/02/25 04:57:16;;;;;;;32.90;17.50;;;1.80;71.40;;;;;;5024864;28;20049;-68
2023/02/25 04:59:41;;;;;;;36.90;17.63;;;1.70;72.40;;;;;;5034750;28;20083;-68
2023/02/25 05:02:08;;;;;;;36.75;19.50;;;1.70;72.30;;;;;;5018986;28;20351;-68
2023/02/25 05:04:35;;;;;;;32.60;16.15;;;1.70;72.80;;;;;;5016286;28;20366;-68
2023/02/25 05:07:01;;;;;;;33.10;16.50;;;1.80;73.10;;;;;;5020673;28;20025;-68
2023/02/25 05:09:26;;;;;;;39.08;18.35;;;1.80;73.40;;;;;;5016404;28;20065;-68
2023/02/25 05:11:52;;;;;;;34.67;17.23;;;1.80;73.50;;;;;;5016816;28;20025;-68
2023/02/25 05:14:18;;;;;;;32.75;17.67;;;1.80;73.30;;;;;;5016312;28;20068;-68
2023/02/25 05:16:44;;;;;;;37.65;19.17;;;1.80;74.00;;;;;;5025179;28;20037;-68
2023/02/25 05:19:21;;;;;;;37.70;18.23;;;1.70;73.70;;;;;;5014969;28;20427;-68
2023/02/25 05:21:51;;;;;;;38.38;19.38;;;1.70;73.20;;;;;;5029849;28;20029;-68
2023/02/25 05:24:17;;;;;;;36.65;20.33;;;1.70;73.30;;;;;;5015079;28;20072;-68
2023/02/25 05:26:46;;;;;;;32.30;17.52;;;1.70;72.80;;;;;;5017748;28;20030;-68
2023/02/25 05:29:15;;;;;;;37.90;19.55;;;1.70;72.20;;;;;;5035766;28;20025;-68
2023/02/25 05:31:43;;;;;;;33.65;16.60;;;1.70;72.50;;;;;;5021784;28;20079;-68
2023/02/25 05:34:09;;;;;;;34.45;19.17;;;1.70;71.60;;;;;;5016133;28;20298;-69
2023/02/25 05:36:39;;;;;;;47.15;22.75;;;1.70;71.50;;;;;;5015226;28;20032;-68
2023/02/25 05:39:11;;;;;;;49.08;23.48;;;1.70;70.60;;;;;;5030406;28;20357;-68
2023/02/25 05:41:40;;;;;;;42.60;22.45;;;1.70;70.50;;;;;;5027333;28;20022;-68
2023/02/25 05:44:06;;;;;;;47.45;23.17;;;1.70;69.50;;;;;;5035621;28;20148;-68
2023/02/25 05:46:32;;;;;;;39.70;20.98;;;1.70;69.20;;;;;;5033040;28;20029;-67
2023/02/25 05:49:00;;;;;;;42.50;19.58;;;1.60;69.40;;;;;;5015967;28;20029;-67
2023/02/25 05:51:26;;;;;;;43.28;19.42;;;1.60;68.80;;;;;;5016107;28;20033;-67
2023/02/25 05:53:52;;;;;;;42.92;18.83;;;1.60;69.30;;;;;;5014822;28;20022;-70
2023/02/25 05:56:20;;;;;;;35.17;17.48;;;1.60;69.60;;;;;;5016345;28;20630;-69
2023/02/25 05:58:47;;;;;;;32.67;17.13;;;1.50;69.80;;;;;;5033276;28;20124;-69
2023/02/25 06:01:16;;;;;;;30.40;15.48;;;1.50;70.00;;;;;;5028568;28;20022;-69
2023/02/25 06:03:43;;;;;;;39.63;17.92;;;1.50;70.10;;;;;;5035300;28;20030;-68
2023/02/25 06:06:17;;;;;;;31.30;14.75;;;1.50;70.40;;;;;;5027983;28;20038;-69
2023/02/25 06:08:43;;;;;;;33.38;15.98;;;1.50;70.50;;;;;;5017895;28;20037;-69
2023/02/25 06:11:09;;;;;;;26.08;13.60;;;1.40;72.00;;;;;;5021869;28;20049;-68
2023/02/25 06:13:38;;;;;;;24.30;11.95;;;1.40;73.90;;;;;;5035774;28;20083;-68
2023/02/25 06:16:05;;;;;;;25.83;13.07;;;1.30;77.10;;;;;;5034456;28;20038;-68
2023/02/25 06:18:35;;;;;;;29.40;14.63;;;1.30;77.30;;;;;;5023363;28;20445;-68
2023/02/25 06:21:09;;;;;;;23.50;11.60;;;1.30;77.20;;;;;;5021854;28;20109;-68
2023/02/25 06:23:40;;;;;;;18.30;10.13;;;1.20;77.50;;;;;;5019148;28;20026;-68
2023/02/25 06:26:08;;;;;;;18.17;8.73;;;1.20;79.20;;;;;;5019352;28;20057;-68
2023/02/25 06:28:35;;;;;;;19.63;10.00;;;1.10;82.60;;;;;;5033571;28;20101;-68
2023/02/25 06:31:00;;;;;;;24.65;11.40;;;1.10;83.60;;;;;;5028695;28;20034;-68
2023/02/25 06:33:29;;;;;;;21.33;9.27;;;1.10;82.90;;;;;;5017707;28;20021;-68
2023/02/25 06:35:58;;;;;;;20.20;10.05;;;1.10;81.90;;;;;;5020966;28;20053;-68
2023/02/25 06:38:23;;;;;;;22.00;9.80;;;1.00;82.20;;;;;;5024392;28;20347;-68
2023/02/25 06:40:49;;;;;;;19.05;9.13;;;1.00;84.00;;;;;;5019149;28;20041;-68
2023/02/25 06:43:15;;;;;;;14.07;7.53;;;1.00;84.90;;;;;;5017649;28;20021;-68
2023/02/25 06:45:41;;;;;;;20.23;8.40;;;1.00;85.40;;;;;;5020798;28;20018;-68
2023/02/25 06:48:09;;;;;;;16.75;8.38;;;0.90;86.40;;;;;;5038274;28;20284;-68
2023/02/25 06:50:37;;;;;;;21.58;10.20;;;1.00;85.70;;;;;;5035828;28;20036;-68
2023/02/25 06:53:02;;;;;;;15.25;6.90;;;1.00;88.70;;;;;;5037161;28;20083;-68
2023/02/25 06:55:28;;;;;;;13.45;6.80;;;0.90;90.60;;;;;;5033956;28;20116;-68
2023/02/25 06:57:53;;;;;;;16.13;7.50;;;1.00;92.80;;;;;;5038098;28;20054;-68
2023/02/25 07:00:20;;;;;;;17.90;10.00;;;1.00;93.20;;;;;;5034150;28;20041;-68
2023/02/25 07:02:48;;;;;;;19.55;11.73;;;1.10;93.20;;;;;;5035469;28;20034;-68
2023/02/25 07:05:14;;;;;;;18.25;8.15;;;1.10;93.50;;;;;;5036506;28;20032;-68
2023/02/25 07:07:40;;;;;;;14.38;7.72;;;1.10;95.50;;;;;;5036737;28;20033;-67
2023/02/25 07:10:06;;;;;;;20.85;10.30;;;1.10;94.60;;;;;;5037890;28;20025;-68
2023/02/25 07:12:31;;;;;;;18.08;7.75;;;1.10;93.50;;;;;;5035946;28;20037;-68
2023/02/25 07:14:58;;;;;;;23.23;12.85;;;1.10;93.40;;;;;;5025902;28;20036;-68
2023/02/25 07:17:23;;;;;;;18.73;8.52;;;1.20;94.00;;;;;;5032365;28;20037;-68
2023/02/25 07:19:49;;;;;;;21.30;9.98;;;1.20;96.20;;;;;;5038884;28;20032;-68
2023/02/25 07:22:16;;;;;;;22.33;10.77;;;1.30;94.40;;;;;;5038719;28;20105;-68
2023/02/25 07:24:44;;;;;;;24.70;10.55;;;1.30;94.60;;;;;;5030012;28;20431;-67
2023/02/25 07:27:11;;;;;;;28.77;12.82;;;1.30;96.30;;;;;;5025388;28;20109;-68
2023/02/25 07:29:37;;;;;;;25.67;11.43;;;1.40;96.50;;;;;;5028798;28;20079;-67
2023/02/25 07:32:03;;;;;;;25.38;10.10;;;1.40;97.70;;;;;;5036760;28;20029;-67
2023/02/25 07:34:29;;;;;;;22.95;9.55;;;1.40;98.00;;;;;;5036391;28;20041;-67
2023/02/25 07:36:54;;;;;;;19.67;8.77;;;1.50;98.00;;;;;;5035248;28;20036;-67
2023/02/25 07:39:20;;;;;;;12.10;5.32;;;1.50;98.00;;;;;;5036107;28;20034;-67
2023/02/25 07:41:46;;;;;;;49.13;20.85;;;1.50;98.00;;;;;;5036507;28;20036;-68
2023/02/25 07:44:12;;;;;;;39.42;19.65;;;1.50;98.00;;;;;;5020072;28;20060;-68
2023/02/25 07:46:38;;;;;;;28.83;14.27;;;1.50;98.00;;;;;;5029403;28;21686;-68
2023/02/25 07:49:07;;;;;;;25.25;11.05;;;1.60;98.00;;;;;;5043229;28;20026;-67
2023/02/25 07:51:32;;;;;;;19.58;8.32;;;1.70;98.00;;;;;;5032586;28;20026;-68
2023/02/25 07:53:59;;;;;;;15.73;6.47;;;1.70;98.00;;;;;;5038534;28;20453;-68
2023/02/25 07:56:28;;;;;;;19.98;9.32;;;1.80;98.00;;;;;;5038352;28;20028;-66
2023/02/25 07:58:54;;;;;;;18.02;8.38;;;2.00;98.00;;;;;;5036883;28;20501;-67
2023/02/25 08:01:30;;;;;;;12.30;5.18;;;2.10;98.00;;;;;;5036168;28;20057;-66
2023/02/25 08:04:04;;;;;;;10.00;4.28;;;2.10;98.00;;;;;;5029546;28;20108;-67
2023/02/25 08:06:31;;;;;;;12.75;6.13;;;2.10;98.00;;;;;;5036169;28;20041;-68
2023/02/25 08:08:57;;;;;;;16.52;7.15;;;2.10;98.00;;;;;;5057185;28;20025;-66
2023/02/25 08:11:29;;;;;;;21.98;8.50;;;2.20;98.00;;;;;;5035457;28;20033;-66
2023/02/25 08:13:55;;;;;;;20.08;9.23;;;2.30;98.00;;;;;;5033359;28;20075;-67
2023/02/25 08:16:21;;;;;;;21.55;9.75;;;2.50;98.00;;;;;;5026246;28;20025;-68
2023/02/25 08:18:47;;;;;;;19.02;6.97;;;2.60;98.00;;;;;;5031355;28;20043;-67
2023/02/25 08:21:17;;;;;;;18.52;8.60;;;2.50;98.00;;;;;;5037568;28;20037;-67
2023/02/25 08:23:43;;;;;;;8.50;3.80;;;2.50;98.00;;;;;;5035385;28;20029;-67
2023/02/25 08:26:09;;;;;;;10.68;3.63;;;2.60;98.00;;;;;;5040098;28;20037;-67
2023/02/25 08:28:35;;;;;;;8.52;3.15;;;2.60;98.00;;;;;;5033748;28;20112;-67
2023/02/25 08:31:01;;;;;;;7.55;2.85;;;3.00;98.00;;;;;;5035024;28;20025;-66
2023/02/25 08:33:28;;;;;;;10.75;3.78;;;4.20;98.00;;;;;;5027871;28;20025;-66
2023/02/25 08:35:54;;;;;;;9.88;3.35;;;5.10;95.50;;;;;;5029254;28;20029;-67
2023/02/25 08:38:20;;;;;;;8.32;3.25;;;5.20;93.60;;;;;;5031610;28;20477;-67
2023/02/25 08:40:49;;;;;;;8.15;3.67;;;4.50;90.80;;;;;;5030721;28;20116;-66
2023/02/25 08:43:14;;;;;;;9.10;3.45;;;4.10;93.50;;;;;;5023756;28;20116;-66
2023/02/25 08:45:41;;;;;;;11.85;4.20;;;4.70;95.00;;;;;;5025330;28;20104;-65
2023/02/25 08:48:09;;;;;;;6.22;2.50;;;5.50;92.20;;;;;;5033754;28;20108;-66
2023/02/25 08:50:38;;;;;;;10.00;2.72;;;6.30;88.70;;;;;;5033035;28;20575;-67
2023/02/25 08:53:03;;;;;;;6.00;2.25;;;6.80;85.10;;;;;;5032826;28;20064;-68
2023/02/25 08:55:29;;;;;;;12.07;3.30;;;6.90;85.80;;;;;;5023423;28;20117;-67
2023/02/25 08:57:57;;;;;;;7.85;2.90;;;6.10;85.60;;;;;;5020156;28;20457;-67
2023/02/25 09:00:24;;;;;;;10.73;4.97;;;5.20;86.50;;;;;;5030094;28;20104;-67
2023/02/25 09:02:49;;;;;;;5.55;2.90;;;4.60;88.60;;;;;;5020826;28;20026;-69
2023/02/25 09:05:15;;;;;;;6.88;2.45;;;4.20;89.90;;;;;;5020441;28;20037;-67
2023/02/25 09:07:40;;;;;;;11.07;3.70;;;3.80;90.80;;;;;;5021827;28;20074;-68
2023/02/25 09:10:06;;;;;;;8.98;3.25;;;3.60;91.50;;;;;;5023351;28;20047;-68
2023/02/25 09:12:32;;;;;;;10.02;3.53;;;3.50;93.10;;;;;;5018116;28;20043;-68
2023/02/25 09:14:58;;;;;;;7.45;2.50;;;3.40;93.60;;;;;;5011457;28;20033;-68
2023/02/25 09:17:24;;;;;;;7.15;2.90;;;3.40;94.00;;;;;;5021349;28;20466;-67
2023/02/25 09:19:49;;;;;;;12.05;4.70;;;3.30;94.60;;;;;;5030982;28;20060;-67
2023/02/25 09:22:15;;;;;;;9.60;3.63;;;3.20;94.20;;;;;;5027421;28;20033;-68
2023/02/25 09:24:40;;;;;;;7.90;2.65;;;3.10;94.60;;;;;;5023572;28;20105;-67
2023/02/25 09:27:09;;;;;;;8.95;3.33;;;3.00;94.90;;;;;;5021880;28;20030;-67
2023/02/25 09:29:37;;;;;;;9.50;3.88;;;2.90;94.50;;;;;;5026075;28;20032;-67
2023/02/25 09:32:03;;;;;;;12.45;4.13;;;2.80;95.20;;;;;;5031814;28;20037;-67
2023/02/25 09:34:29;;;;;;;13.05;3.67;;;2.80;95.20;;;;;;5018002;28;20030;-67
2023/02/25 09:36:55;;;;;;;9.68;3.33;;;2.60;95.60;;;;;;5024262;28;20026;-67
2023/02/25 09:39:21;;;;;;;14.50;4.57;;;2.60;95.70;;;;;;5022829;28;20026;-67
2023/02/25 09:42:08;;;;;;;10.02;3.47;;;2.50;96.40;;;;;;5023618;28;20033;-67
2023/02/25 09:44:53;;;;;;;10.55;4.30;;;2.40;97.60;;;;;;5020384;28;20044;-67
2023/02/25 09:47:46;;;;;;;15.38;7.43;;;2.30;97.90;;;;;;5024304;28;20036;-67
2023/02/25 09:50:17;;;;;;;9.35;3.75;;;2.40;98.00;;;;;;5036203;28;20025;-67
2023/02/25 09:52:51;;;;;;;11.85;4.40;;;2.30;98.00;;;;;;5040442;28;20017;-67
2023/02/25 09:55:31;;;;;;;18.23;5.30;;;2.20;98.00;;;;;;5038293;28;20025;-67
2023/02/25 09:58:13;;;;;;;12.80;5.80;;;2.30;98.00;;;;;;5037771;28;20385;-67
2023/02/25 10:00:53;;;;;;;16.63;7.40;;;2.30;98.00;;;;;;5034163;28;20036;-67
2023/02/25 10:03:28;;;;;;;10.15;4.18;;;2.40;98.00;;;;;;5025346;28;20327;-67
2023/02/25 10:06:09;;;;;;;12.98;6.03;;;2.60;98.00;;;;;;5027181;28;20430;-67
2023/02/25 10:09:05;;;;;;;16.73;6.80;;;2.70;98.00;;;;;;5034509;28;20025;-67
2023/02/25 10:11:49;;;;;;;19.15;7.47;;;2.80;98.00;;;;;;5018650;28;20069;-67
2023/02/25 10:14:41;;;;;;;13.85;5.32;;;2.80;98.00;;;;;;5027742;28;20084;-67
2023/02/25 10:17:28;;;;;;;23.70;9.00;;;2.80;98.00;;;;;;5018671;28;20045;-67
2023/02/25 10:19:59;;;;;;;19.73;9.45;;;2.80;98.00;;;;;;5030264;28;20033;-67
2023/02/25 10:22:49;;;;;;;13.60;7.80;;;2.80;98.00;;;;;;5024902;28;20104;-67
2023/02/25 10:25:25;;;;;;;12.60;5.78;;;2.90;98.00;;;;;;5033606;28;20094;-67
2023/02/25 10:28:02;;;;;;;10.25;5.70;;;3.10;98.00;;;;;;5038483;28;20048;-67
2023/02/25 10:30:44;;;;;;;14.52;5.65;;;3.30;96.60;;;;;;5022081;28;20029;-67
2023/02/25 10:33:19;;;;;;;11.63;5.68;;;3.30;96.00;;;;;;5022684;28;20081;-67
2023/02/25 10:35:47;;;;;;;10.55;5.43;;;3.50;96.40;;;;;;5029616;28;20026;-67
2023/02/25 10:38:13;;;;;;;10.00;4.43;;;3.70;93.80;;;;;;5026769;28;20036;-67
2023/02/25 10:40:39;;;;;;;14.60;5.82;;;3.80;93.60;;;;;;5035779;28;20030;-67
2023/02/25 10:43:25;;;;;;;11.75;4.65;;;3.90;94.40;;;;;;5041475;28;20430;-67
2023/02/25 10:46:01;;;;;;;8.43;3.38;;;4.40;94.20;;;;;;5036665;28;20041;-67
2023/02/25 10:48:28;;;;;;;10.82;3.55;;;5.80;91.60;;;;;;5018626;28;20076;-67
2023/02/25 10:51:05;;;;;;;10.35;4.30;;;6.30;88.90;;;;;;5020494;28;20084;-67
2023/02/25 10:53:33;;;;;;;9.68;4.03;;;6.10;87.00;;;;;;5033021;28;20025;-67
2023/02/25 10:56:00;;;;;;;10.57;4.28;;;5.80;88.40;;;;;;5030527;28;20109;-67
2023/02/25 10:58:30;;;;;;;11.88;4.68;;;5.30;90.60;;;;;;5038140;28;20307;-67
2023/02/25 11:01:18;;;;;;;20.02;6.32;;;4.80;91.50;;;;;;5035767;28;20025;-67
2023/02/25 11:04:01;;;;;;;12.93;5.00;;;4.40;88.20;;;;;;5029921;28;20037;-67
2023/02/25 11:06:36;;;;;;;10.10;4.13;;;4.00;90.40;;;;;;5032640;28;20032;-67
2023/02/25 11:09:23;;;;;;;12.35;4.15;;;3.80;91.50;;;;;;5040370;28;20331;-67
2023/02/25 11:12:10;;;;;;;9.60;4.45;;;3.80;92.30;;;;;;5028357;28;20134;-67
2023/02/25 11:14:39;;;;;;;12.20;5.35;;;4.20;92.90;;;;;;5037182;28;20029;-67
2023/02/25 11:17:19;;;;;;;12.02;6.57;;;4.70;90.50;;;;;;5037405;28;20044;-67
2023/02/25 11:20:05;;;;;;;7.07;3.25;;;5.00;87.30;;;;;;5036545;28;20048;-67
2023/02/25 11:22:40;;;;;;;10.15;3.42;;;5.10;84.20;;;;;;5038433;28;20381;-67
2023/02/25 11:25:28;;;;;;;14.63;4.85;;;5.00;83.10;;;;;;5019376;28;20049;-67
2023/02/25 11:27:57;;;;;;;6.00;2.35;;;4.90;82.30;;;;;;5032477;28;20040;-67
2023/02/25 11:30:37;;;;;;;18.45;9.93;;;4.70;81.50;;;;;;5033911;28;20041;-67
2023/02/25 11:33:23;;;;;;;14.95;4.75;;;4.70;82.60;;;;;;5038460;28;20033;-67
2023/02/25 11:35:56;;;;;;;17.33;8.15;;;4.70;84.80;;;;;;5034549;28;20056;-67
2023/02/25 11:38:30;;;;;;;13.55;6.05;;;4.50;84.30;;;;;;5025766;28;20034;-66
2023/02/25 11:40:59;;;;;;;13.43;5.03;;;4.40;86.30;;;;;;5037041;28;20044;-66
2023/02/25 11:43:39;;;;;;;26.00;9.57;;;4.30;87.90;;;;;;5038164;28;20040;-68
2023/02/25 11:46:10;;;;;;;16.55;7.25;;;4.20;88.00;;;;;;5029732;28;20081;-68
2023/02/25 11:49:15;;;;;;;9.82;4.25;;;4.10;87.10;;;;;;5033734;28;20119;-67
2023/02/25 11:51:56;;;;;;;17.42;10.75;;;4.40;87.70;;;;;;5036074;28;20034;-67
2023/02/25 11:54:53;;;;;;;11.02;3.80;;;4.70;85.90;;;;;;5036176;28;20025;-67
2023/02/25 11:57:24;;;;;;;9.40;5.05;;;5.00;85.50;;;;;;5030042;28;20044;-67
2023/02/25 11:59:55;;;;;;;10.40;3.70;;;5.00;85.60;;;;;;5026450;28;20116;-66
2023/02/25 12:03:03;;;;;;;10.98;5.70;;;5.70;84.60;;;;;;5037349;28;20083;-67
2023/02/25 12:05:46;;;;;;;7.55;3.40;;;6.80;81.60;;;;;;5035638;28;20041;-67
2023/02/25 12:08:23;;;;;;;10.27;4.83;;;6.50;78.80;;;;;;5023947;28;20080;-67
2023/02/25 12:11:17;;;;;;;8.50;2.65;;;5.90;80.60;;;;;;5016371;28;20281;-67
2023/02/25 12:14:03;;;;;;;9.88;4.93;;;5.50;81.50;;;;;;5017068;28;20021;-67
2023/02/25 12:16:44;;;;;;;15.13;9.02;;;5.30;82.30;;;;;;5013096;28;20060;-67
2023/02/25 12:19:22;;;;;;;12.60;6.72;;;4.80;82.60;;;;;;5011429;28;20034;-68
2023/02/25 12:22:11;;;;;;;10.65;4.85;;;4.40;82.90;;;;;;5013350;28;20065;-66
2023/02/25 12:24:52;;;;;;;9.05;4.10;;;4.40;84.70;;;;;;5020421;28;20028;-66
2023/02/25 12:27:26;;;;;;;13.32;5.43;;;4.40;84.50;;;;;;5024083;28;20022;-67
2023/02/25 12:30:16;;;;;;;9.02;3.50;;;4.50;84.40;;;;;;5025014;28;20033;-67
2023/02/25 12:33:10;;;;;;;8.13;3.88;;;4.60;83.20;;;;;;5017377;28;20030;-67
2023/02/25 12:35:48;;;;;;;;;;;4.80;83.50;;;;;;5032668;28;20029;-67
2023/02/25 12:38:50;;;;;;;12.02;4.80;;;5.10;81.30;;;;;;5022390;28;19954;-67
2023/02/25 12:41:24;;;;;;;10.88;3.40;;;5.40;80.10;;;;;;5031297;28;20160;-66
2023/02/25 12:44:08;;;;;;;8.32;2.55;;;5.40;80.30;;;;;;5017917;28;20033;-67
2023/02/25 12:47:03;;;;;;;7.95;2.97;;;5.50;79.70;;;;;;5020090;28;20088;-67
2023/02/25 12:49:57;;;;;;;;;;;5.40;78.60;;;;;;5019354;28;20033;-67
2023/02/25 12:52:51;;;;;;;7.05;3.67;;;5.20;79.60;;;;;;5018694;28;19909;-67
2023/02/25 12:55:21;;;;;;;12.18;5.50;;;4.90;80.20;;;;;;5032826;28;20033;-66
2023/02/25 12:58:05;;;;;;;9.63;4.50;;;4.70;80.10;;;;;;5035279;28;20157;-67
2023/02/25 13:00:54;;;;;;;6.57;2.80;;;4.70;81.10;;;;;;5021083;28;20029;-67
2023/02/25 13:04:00;;;;;;;6.88;2.45;;;4.60;82.00;;;;;;5022746;28;20045;-66
2023/02/25 13:06:53;;;;;;;6.32;3.25;;;4.60;82.10;;;;;;5024916;28;20100;-66